createdAt,value
2023-01-18T00:01:09.456Z,100.00
2023-01-18T00:03:38.279Z,100.00
2023-01-18T00:06:08.128Z,100.00
2023-01-18T00:08:36.539Z,100.00
2023-01-18T00:11:04.893Z,100.00
2023-01-18T00:13:32.078Z,100.00
2023-01-18T00:16:04.190Z,100.00
2023-01-18T00:18:31.282Z,100.00
2023-01-18T00:21:05.752Z,100.00
2023-01-18T00:23:33.193Z,100.00
2023-01-18T00:26:04.591Z,100.00
2023-01-18T00:28:31.624Z,100.00
2023-01-18T00:30:58.215Z,100.00
2023-01-18T00:33:24.914Z,100.00
2023-01-18T00:35:59.364Z,100.00
2023-01-18T00:38:26.497Z,100.00
2023-01-18T00:40:53.258Z,100.00
2023-01-18T00:43:38.807Z,100.00
2023-01-18T00:46:06.428Z,100.00
2023-01-18T00:48:33.825Z,100.00
2023-01-18T00:51:00.879Z,100.00
2023-01-18T00:53:27.983Z,100.00
2023-01-18T00:55:54.933Z,100.00
2023-01-18T00:58:21.783Z,100.00
2023-01-18T01:00:51.326Z,100.00
2023-01-18T01:03:18.280Z,100.00
2023-01-18T01:06:03.800Z,100.00
2023-01-18T01:08:30.685Z,100.00
2023-01-18T01:11:09.939Z,100.00
2023-01-18T01:13:56.023Z,100.00
2023-01-18T01:16:41.771Z,100.00
2023-01-18T01:19:26.919Z,100.00
2023-01-18T01:22:11.809Z,100.00
2023-01-18T01:24:56.923Z,100.00
2023-01-18T01:27:23.495Z,100.00
2023-01-18T01:29:52.294Z,100.00
2023-01-18T01:32:18.870Z,100.00
2023-01-18T01:34:45.458Z,100.00
2023-01-18T01:37:12.020Z,100.00
2023-01-18T01:39:38.800Z,100.00
2023-01-18T01:42:05.498Z,100.00
2023-01-18T01:44:34.398Z,100.00
2023-01-18T01:47:10.553Z,100.00
2023-01-18T01:49:42.127Z,100.00
2023-01-18T01:52:16.151Z,100.00
2023-01-18T01:54:58.003Z,100.00
2023-01-18T01:57:32.766Z,100.00
2023-01-18T02:00:09.302Z,100.00
2023-01-18T02:02:40.279Z,100.00
2023-01-18T02:05:09.204Z,100.00
2023-01-18T02:07:36.189Z,100.00
2023-01-18T02:10:04.783Z,100.00
2023-01-18T02:12:33.052Z,100.00
2023-01-18T02:15:00.211Z,100.00
2023-01-18T02:17:42.033Z,100.00
2023-01-18T02:20:47.724Z,100.00
2023-01-18T02:23:33.903Z,100.00
2023-01-18T02:26:19.176Z,100.00
2023-01-18T02:29:01.391Z,100.00
2023-01-18T02:31:34.251Z,100.00
2023-01-18T02:34:07.674Z,100.00
2023-01-18T02:36:52.865Z,100.00
2023-01-18T02:39:31.502Z,100.00
2023-01-18T02:42:36.489Z,100.00
2023-01-18T02:45:28.068Z,100.00
2023-01-18T02:47:55.602Z,100.00
2023-01-18T02:50:26.163Z,100.00
2023-01-18T02:52:53.597Z,100.00
2023-01-18T02:55:28.711Z,100.00
2023-01-18T02:58:21.802Z,100.00
2023-01-18T03:00:54.308Z,100.00
2023-01-18T03:03:21.990Z,100.00
2023-01-18T03:05:50.539Z,100.00
2023-01-18T03:08:31.466Z,100.00
2023-01-18T03:11:03.011Z,100.00
2023-01-18T03:14:22.922Z,100.00
2023-01-18T03:17:23.260Z,100.00
2023-01-18T03:20:09.586Z,100.00
2023-01-18T03:23:12.657Z,100.00
2023-01-18T03:25:41.382Z,100.00
2023-01-18T03:28:41.742Z,100.00
2023-01-18T03:31:31.112Z,100.00
2023-01-18T03:34:06.025Z,100.00
2023-01-18T03:36:38.546Z,100.00
2023-01-18T03:39:07.172Z,100.00
2023-01-18T03:41:40.670Z,100.00
2023-01-18T03:44:20.250Z,100.00
2023-01-18T03:46:47.552Z,100.00
2023-01-18T03:49:16.567Z,100.00
2023-01-18T03:51:55.978Z,100.00
2023-01-18T03:54:41.065Z,100.00
2023-01-18T03:57:22.573Z,100.00
2023-01-18T03:59:49.303Z,100.00
2023-01-18T04:02:17.728Z,100.00
2023-01-18T04:04:44.544Z,100.00
2023-01-18T04:07:11.146Z,100.00
2023-01-18T04:09:37.952Z,100.00
2023-01-18T04:12:04.825Z,100.00
2023-01-18T04:14:31.424Z,100.00
2023-01-18T04:16:58.011Z,100.00
2023-01-18T04:19:24.569Z,100.00
2023-01-18T04:21:51.129Z,100.00
2023-01-18T04:24:17.727Z,100.00
2023-01-18T04:26:44.291Z,100.00
2023-01-18T04:29:10.909Z,100.00
2023-01-18T04:31:37.688Z,100.00
2023-01-18T04:34:04.313Z,100.00
2023-01-18T04:36:31.056Z,100.00
2023-01-18T04:38:58.104Z,100.00
2023-01-18T04:41:24.816Z,100.00
2023-01-18T04:43:51.424Z,100.00
2023-01-18T04:46:18.124Z,100.00
2023-01-18T04:48:44.765Z,100.00
2023-01-18T04:51:13.400Z,100.00
2023-01-18T04:53:44.006Z,100.00
2023-01-18T04:56:11.356Z,100.00
2023-01-18T04:58:38.280Z,100.00
2023-01-18T05:01:07.124Z,100.00
2023-01-18T05:03:38.163Z,100.00
2023-01-18T05:06:10.580Z,100.00
2023-01-18T05:08:40.976Z,100.00
2023-01-18T05:11:10.666Z,100.00
2023-01-18T05:13:38.366Z,100.00
2023-01-18T05:16:06.314Z,100.00
2023-01-18T05:18:33.426Z,100.00
2023-01-18T05:21:00.021Z,100.00
2023-01-18T05:23:26.644Z,100.00
2023-01-18T05:25:57.952Z,100.00
2023-01-18T05:28:26.510Z,100.00
2023-01-18T05:30:54.605Z,100.00
2023-01-18T05:33:22.356Z,100.00
2023-01-18T05:35:54.419Z,100.00
2023-01-18T05:38:22.408Z,100.00
2023-01-18T05:40:52.455Z,100.00
2023-01-18T05:43:20.632Z,100.00
2023-01-18T05:45:47.316Z,100.00
2023-01-18T05:48:13.986Z,100.00
2023-01-18T05:50:45.002Z,100.00
2023-01-18T05:53:16.537Z,100.00
2023-01-18T05:55:43.664Z,100.00
2023-01-18T05:58:10.361Z,100.00
2023-01-18T06:00:36.995Z,100.00
2023-01-18T06:03:03.629Z,100.00
2023-01-18T06:05:30.551Z,100.00
2023-01-18T06:07:57.103Z,100.00
2023-01-18T06:10:23.674Z,100.00
2023-01-18T06:12:50.461Z,100.00
2023-01-18T06:15:17.167Z,100.00
2023-01-18T06:17:46.124Z,100.00
2023-01-18T06:20:13.478Z,100.00
2023-01-18T06:22:40.750Z,100.00
2023-01-18T06:25:09.374Z,100.00
2023-01-18T06:27:37.562Z,100.00
2023-01-18T06:30:06.291Z,100.00
2023-01-18T06:32:32.966Z,100.00
2023-01-18T06:34:59.618Z,100.00
2023-01-18T06:37:26.492Z,100.00
2023-01-18T06:39:53.035Z,100.00
2023-01-18T06:42:19.605Z,100.00
2023-01-18T06:44:46.181Z,100.00
2023-01-18T06:47:13.618Z,100.00
2023-01-18T06:49:40.211Z,100.00
2023-01-18T06:52:06.776Z,100.00
2023-01-18T06:54:33.324Z,100.00
2023-01-18T06:56:59.903Z,100.00
2023-01-18T06:59:28.487Z,100.00
2023-01-18T07:01:55.325Z,100.00
2023-01-18T07:04:22.119Z,100.00
2023-01-18T07:06:48.763Z,100.00
2023-01-18T07:09:15.353Z,100.00
2023-01-18T07:11:43.388Z,100.00
2023-01-18T07:14:11.283Z,100.00
2023-01-18T07:16:38.372Z,100.00
2023-01-18T07:19:05.322Z,100.00
2023-01-18T07:21:32.284Z,100.00
2023-01-18T07:23:59.279Z,100.00
2023-01-18T07:26:26.275Z,100.00
2023-01-18T07:28:54.744Z,100.00
2023-01-18T07:31:23.757Z,100.00
2023-01-18T07:33:50.840Z,100.00
2023-01-18T07:36:17.415Z,100.00
2023-01-18T07:38:44.526Z,100.00
2023-01-18T07:41:14.358Z,100.00
2023-01-18T07:43:41.876Z,100.00
2023-01-18T07:46:10.954Z,100.00
2023-01-18T07:48:38.955Z,100.00
2023-01-18T07:51:08.525Z,100.00
2023-01-18T07:53:36.736Z,100.00
2023-01-18T07:56:06.650Z,100.00
2023-01-18T07:58:35.376Z,100.00
2023-01-18T08:01:08.695Z,100.00
2023-01-18T08:03:36.774Z,100.00
2023-01-18T08:06:05.478Z,100.00
2023-01-18T08:08:32.088Z,100.00
2023-01-18T08:11:00.527Z,100.00
2023-01-18T08:13:27.777Z,100.00
2023-01-18T08:15:55.773Z,100.00
2023-01-18T08:18:23.649Z,100.00
2023-01-18T08:20:50.370Z,100.00
2023-01-18T08:23:17.509Z,100.00
2023-01-18T08:25:45.017Z,100.00
2023-01-18T08:28:11.898Z,100.00
2023-01-18T08:30:41.031Z,100.00
2023-01-18T08:33:08.340Z,100.00
2023-01-18T08:35:41.364Z,100.00
2023-01-18T08:38:08.802Z,100.00
2023-01-18T08:40:35.717Z,100.00
2023-01-18T08:43:04.281Z,100.00
2023-01-18T08:45:31.007Z,100.00
2023-01-18T08:48:03.165Z,100.00
2023-01-18T08:50:31.356Z,100.00
2023-01-18T08:53:00.146Z,100.00
2023-01-18T08:55:28.154Z,100.00
2023-01-18T08:57:56.735Z,100.00
2023-01-18T09:00:26.865Z,100.00
2023-01-18T09:02:53.672Z,100.00
2023-01-18T09:05:20.319Z,100.00
2023-01-18T09:07:47.454Z,100.00
2023-01-18T09:10:14.233Z,100.00
2023-01-18T09:12:41.090Z,100.00
2023-01-18T09:15:08.882Z,100.00
2023-01-18T09:17:35.596Z,100.00
2023-01-18T09:20:03.070Z,97.93
2023-01-18T09:22:29.734Z,98.26
2023-01-18T09:24:57.569Z,95.96
2023-01-18T09:27:24.250Z,93.07
2023-01-18T09:29:52.373Z,90.35
2023-01-18T09:32:20.019Z,90.45
2023-01-18T09:34:50.783Z,91.18
2023-01-18T09:37:19.041Z,89.79
2023-01-18T09:39:51.879Z,88.08
2023-01-18T09:42:29.954Z,89.14
2023-01-18T09:44:59.499Z,85.80
2023-01-18T09:47:32.037Z,85.24
2023-01-18T09:50:02.361Z,82.67
2023-01-18T09:52:31.847Z,82.32
2023-01-18T09:55:05.502Z,83.30
2023-01-18T09:57:55.309Z,81.96
2023-01-18T10:00:26.044Z,82.07
2023-01-18T10:03:00.955Z,81.38
2023-01-18T10:05:33.309Z,84.54
2023-01-18T10:08:07.727Z,84.04
2023-01-18T10:10:39.070Z,82.76
2023-01-18T10:13:47.184Z,80.14
2023-01-18T10:16:15.478Z,79.62
2023-01-18T10:18:48.339Z,78.55
2023-01-18T10:21:24.697Z,79.99
2023-01-18T10:24:13.715Z,77.09
2023-01-18T10:26:41.456Z,78.19
2023-01-18T10:29:12.869Z,79.31
2023-01-18T10:31:59.094Z,80.20
2023-01-18T10:34:34.605Z,80.23
2023-01-18T10:37:14.918Z,80.79
2023-01-18T10:39:50.945Z,81.01
2023-01-18T10:42:23.783Z,80.35
2023-01-18T10:44:50.776Z,81.17
2023-01-18T10:47:19.851Z,78.29
2023-01-18T10:49:50.446Z,76.29
2023-01-18T10:52:35.076Z,76.25
2023-01-18T10:55:07.416Z,75.23
2023-01-18T10:57:42.320Z,74.83
2023-01-18T11:00:33.626Z,74.60
2023-01-18T11:03:03.864Z,75.39
2023-01-18T11:05:40.228Z,75.60
2023-01-18T11:08:25.379Z,76.74
2023-01-18T11:11:18.177Z,75.43
2023-01-18T11:13:45.692Z,75.89
2023-01-18T11:16:15.767Z,76.16
2023-01-18T11:19:15.918Z,75.06
2023-01-18T11:21:51.612Z,73.42
2023-01-18T11:24:27.358Z,72.51
2023-01-18T11:27:14.127Z,71.22
2023-01-18T11:29:44.231Z,71.05
2023-01-18T11:32:22.664Z,70.48
2023-01-18T11:34:52.389Z,69.08
2023-01-18T11:37:36.333Z,68.98
2023-01-18T11:40:33.690Z,67.57
2023-01-18T11:43:12.224Z,69.97
2023-01-18T11:45:48.075Z,71.16
2023-01-18T11:48:30.840Z,68.57
2023-01-18T11:51:02.546Z,67.71
2023-01-18T11:54:01.583Z,67.11
2023-01-18T11:56:30.993Z,67.43
2023-01-18T11:58:58.150Z,67.04
2023-01-18T12:01:43.520Z,67.76
2023-01-18T12:04:55.944Z,68.28
2023-01-18T12:07:25.172Z,68.26
2023-01-18T12:09:55.276Z,69.04
2023-01-18T12:12:46.835Z,68.55
2023-01-18T12:15:39.606Z,67.95
2023-01-18T12:18:27.128Z,68.38
2023-01-18T12:21:18.966Z,67.69
2023-01-18T12:23:56.357Z,68.66
2023-01-18T12:26:37.061Z,68.07
2023-01-18T12:29:06.454Z,68.16
2023-01-18T12:31:42.119Z,68.76
2023-01-18T12:34:22.096Z,69.58
2023-01-18T12:37:07.434Z,69.08
2023-01-18T12:40:04.943Z,68.37
2023-01-18T12:43:03.680Z,67.98
2023-01-18T12:45:37.939Z,68.34
2023-01-18T12:48:19.731Z,68.18
2023-01-18T12:50:49.705Z,67.79
2023-01-18T12:53:37.631Z,68.08
2023-01-18T12:56:20.078Z,65.49
2023-01-18T12:58:56.342Z,65.75
2023-01-18T13:01:27.474Z,66.60
2023-01-18T13:03:58.503Z,66.03
2023-01-18T13:06:27.138Z,64.88
2023-01-18T13:09:01.039Z,64.86
2023-01-18T13:11:33.046Z,65.28
2023-01-18T13:14:09.451Z,65.83
2023-01-18T13:16:58.199Z,65.27
2023-01-18T13:19:54.689Z,65.01
2023-01-18T13:22:40.253Z,65.50
2023-01-18T13:58:38.684Z,69.49
2023-01-18T14:01:07.661Z,69.13
2023-01-18T14:03:45.369Z,69.79
2023-01-18T14:06:47.180Z,70.09
2023-01-18T14:09:18.365Z,69.71
2023-01-18T14:11:56.856Z,69.87
2023-01-18T14:14:27.445Z,68.92
2023-01-18T14:16:58.031Z,69.64
2023-01-18T14:19:27.409Z,69.84
2023-01-18T14:21:59.540Z,69.58
2023-01-18T14:24:57.310Z,70.45
2023-01-18T14:27:28.426Z,71.19
2023-01-18T14:30:05.072Z,72.66
2023-01-18T14:32:37.719Z,74.34
2023-01-18T14:35:16.876Z,80.55
2023-01-18T14:37:43.442Z,82.72
2023-01-18T14:40:12.817Z,85.84
2023-01-18T14:42:46.164Z,88.56
2023-01-18T14:45:40.663Z,90.53
2023-01-18T14:48:19.334Z,91.84
2023-01-18T14:50:48.635Z,92.82
2023-01-18T14:53:18.809Z,93.45
2023-01-18T14:56:01.936Z,93.17
2023-01-18T14:58:32.915Z,94.48
2023-01-18T15:00:59.635Z,94.36
2023-01-18T15:03:29.637Z,95.11
2023-01-18T15:06:19.531Z,95.60
2023-01-18T15:08:47.183Z,96.18
2023-01-18T15:11:14.153Z,96.76
2023-01-18T15:13:47.627Z,97.34
2023-01-18T15:16:20.507Z,97.53
2023-01-18T15:18:51.823Z,97.64
2023-01-18T15:21:23.475Z,98.44
2023-01-18T15:24:09.096Z,98.13
2023-01-18T15:26:44.938Z,98.03
2023-01-18T15:29:21.076Z,98.65
2023-01-18T15:31:56.985Z,97.71
2023-01-18T15:34:31.123Z,97.65
2023-01-18T15:37:00.518Z,97.95
2023-01-18T15:39:27.485Z,97.53
2023-01-18T15:41:57.048Z,97.66
2023-01-18T15:44:43.181Z,97.33
2023-01-18T15:47:22.841Z,97.28
2023-01-18T15:49:52.577Z,97.23
2023-01-18T15:52:50.260Z,97.94
2023-01-18T15:55:28.411Z,98.21
2023-01-18T15:57:59.606Z,98.50
2023-01-18T16:00:32.241Z,99.08
2023-01-18T16:02:59.446Z,99.37
2023-01-18T16:05:26.836Z,99.67
2023-01-18T16:08:16.151Z,99.37
2023-01-18T16:10:54.843Z,99.86
2023-01-18T16:13:21.355Z,100.00
2023-01-18T16:16:04.466Z,100.00
2023-01-18T16:18:31.654Z,100.00
2023-01-18T16:21:01.326Z,100.00
2023-01-18T16:23:29.528Z,100.00
2023-01-18T16:26:05.549Z,100.00
2023-01-18T16:28:32.198Z,100.00
2023-01-18T16:31:03.146Z,100.00
2023-01-18T16:33:29.913Z,100.00
2023-01-18T16:35:56.671Z,100.00
2023-01-18T16:38:23.787Z,100.00
2023-01-18T16:40:51.350Z,100.00
2023-01-18T16:43:17.886Z,100.00
2023-01-18T16:45:46.469Z,100.00
2023-01-18T16:48:16.592Z,100.00
2023-01-18T16:50:43.192Z,100.00
2023-01-18T16:53:09.957Z,100.00
2023-01-18T16:55:36.933Z,100.00
2023-01-18T16:58:03.678Z,100.00
2023-01-18T17:00:44.158Z,100.00
2023-01-18T17:03:10.719Z,100.00
2023-01-18T17:05:37.298Z,100.00
2023-01-18T17:08:04.938Z,100.00
2023-01-18T17:10:39.802Z,100.00
2023-01-18T17:13:07.191Z,100.00
2023-01-18T17:15:34.820Z,100.00
2023-01-18T17:18:02.448Z,100.00
2023-01-18T17:20:30.511Z,100.00
2023-01-18T17:22:57.392Z,100.00
2023-01-18T17:25:24.442Z,100.00
2023-01-18T17:27:51.102Z,100.00
2023-01-18T17:30:20.860Z,100.00
2023-01-18T17:32:48.021Z,100.00
2023-01-18T17:35:16.531Z,100.00
2023-01-18T17:37:43.203Z,100.00
2023-01-18T17:40:17.124Z,100.00
2023-01-18T17:42:49.543Z,100.00
2023-01-18T17:45:16.231Z,100.00
2023-01-18T17:47:43.540Z,100.00
2023-01-18T17:50:18.920Z,100.00
2023-01-18T17:52:45.592Z,100.00
2023-01-18T17:55:14.337Z,100.00
2023-01-18T17:57:42.893Z,100.00
2023-01-18T18:00:11.815Z,100.00
2023-01-18T18:02:38.514Z,100.00
2023-01-18T18:05:05.574Z,100.00
2023-01-18T18:07:32.435Z,100.00
2023-01-18T18:10:01.326Z,100.00
2023-01-18T18:12:29.642Z,100.00
2023-01-18T18:14:56.330Z,100.00
2023-01-18T18:17:25.659Z,100.00
2023-01-18T18:19:52.235Z,100.00
2023-01-18T18:22:19.876Z,100.00
2023-01-18T18:24:47.820Z,100.00
2023-01-18T18:27:14.910Z,100.00
2023-01-18T18:29:41.507Z,100.00
2023-01-18T18:32:08.355Z,100.00
2023-01-18T18:34:35.815Z,100.00
2023-01-18T18:37:06.304Z,100.00
2023-01-18T18:39:33.339Z,100.00
2023-01-18T18:42:00.423Z,100.00
2023-01-18T18:44:27.425Z,100.00
2023-01-18T18:46:54.296Z,100.00
2023-01-18T18:49:20.980Z,100.00
2023-01-18T18:51:47.562Z,100.00
2023-01-18T18:54:14.203Z,100.00
2023-01-18T18:56:41.524Z,100.00
2023-01-18T18:59:08.247Z,100.00
2023-01-18T19:01:35.282Z,100.00
2023-01-18T19:04:02.168Z,100.00
2023-01-18T19:06:28.775Z,100.00
2023-01-18T19:08:55.789Z,100.00
2023-01-18T19:11:22.352Z,100.00
2023-01-18T19:13:49.688Z,100.00
2023-01-18T19:16:16.789Z,100.00
2023-01-18T19:18:43.497Z,100.00
2023-01-18T19:21:10.081Z,100.00
2023-01-18T19:23:36.740Z,100.00
2023-01-18T19:26:03.917Z,100.00
2023-01-18T19:28:31.245Z,100.00
2023-01-18T19:31:02.586Z,100.00
2023-01-18T19:33:29.620Z,100.00
2023-01-18T19:35:56.256Z,100.00
2023-01-18T19:38:22.954Z,100.00
2023-01-18T19:40:49.563Z,100.00
2023-01-18T19:43:16.359Z,100.00
2023-01-18T19:45:42.929Z,100.00
2023-01-18T19:48:09.487Z,100.00
2023-01-18T19:50:36.189Z,100.00
2023-01-18T19:53:03.727Z,100.00
2023-01-18T19:55:30.636Z,100.00
2023-01-18T19:57:57.863Z,100.00
2023-01-18T20:00:25.724Z,100.00
2023-01-18T20:02:53.549Z,100.00
2023-01-18T20:05:20.534Z,100.00
2023-01-18T20:07:47.272Z,100.00
2023-01-18T20:10:14.073Z,100.00
2023-01-18T20:12:40.730Z,100.00
2023-01-18T20:15:07.716Z,100.00
2023-01-18T20:17:34.354Z,100.00
2023-01-18T20:20:00.927Z,100.00
2023-01-18T20:22:27.497Z,100.00
2023-01-18T20:24:54.460Z,100.00
2023-01-18T20:27:21.068Z,100.00
2023-01-18T20:29:47.674Z,100.00
2023-01-18T20:32:18.112Z,100.00
2023-01-18T20:34:46.908Z,100.00
2023-01-18T20:37:15.236Z,100.00
2023-01-18T20:39:42.453Z,100.00
2023-01-18T20:42:09.484Z,100.00
2023-01-18T20:44:36.234Z,100.00
2023-01-18T20:47:03.461Z,100.00
2023-01-18T20:49:37.682Z,100.00
2023-01-18T20:52:06.742Z,100.00
2023-01-18T20:54:34.869Z,100.00
2023-01-18T20:57:02.726Z,100.00
2023-01-18T20:59:29.395Z,100.00
2023-01-18T21:01:56.193Z,100.00
2023-01-18T21:04:22.906Z,100.00
2023-01-18T21:06:49.905Z,100.00
2023-01-18T21:09:16.924Z,100.00
2023-01-18T21:11:43.872Z,100.00
2023-01-18T21:14:10.480Z,100.00
2023-01-18T21:16:37.209Z,100.00
2023-01-18T21:19:04.532Z,100.00
2023-01-18T21:21:31.868Z,100.00
2023-01-18T21:23:59.203Z,100.00
2023-01-18T21:26:25.904Z,100.00
2023-01-18T21:28:52.848Z,100.00
2023-01-18T21:31:19.420Z,100.00
2023-01-18T21:33:46.039Z,100.00
2023-01-18T21:36:15.643Z,100.00
2023-01-18T21:38:42.305Z,100.00
2023-01-18T21:41:28.286Z,100.00
2023-01-18T21:44:13.415Z,100.00
2023-01-18T21:46:47.959Z,100.00
2023-01-18T21:49:52.198Z,100.00
2023-01-18T21:52:38.916Z,100.00
2023-01-18T21:55:05.928Z,100.00
2023-01-18T21:57:32.570Z,100.00
2023-01-18T21:59:59.105Z,100.00
2023-01-18T22:02:25.808Z,100.00
2023-01-18T22:04:59.086Z,100.00
2023-01-18T22:07:30.238Z,100.00
2023-01-18T22:10:06.101Z,100.00
2023-01-18T22:12:35.046Z,100.00
2023-01-18T22:15:02.261Z,100.00
2023-01-18T22:17:29.031Z,100.00
2023-01-18T22:19:55.671Z,100.00
2023-01-18T22:22:22.273Z,100.00
2023-01-18T22:24:48.803Z,100.00
2023-01-18T22:27:15.372Z,100.00
2023-01-18T22:29:42.109Z,100.00
2023-01-18T22:32:08.930Z,100.00
2023-01-18T22:34:36.237Z,100.00
2023-01-18T22:37:03.319Z,100.00
2023-01-18T22:39:29.953Z,100.00
2023-01-18T22:41:56.627Z,100.00
2023-01-18T22:44:23.310Z,100.00
2023-01-18T22:46:49.954Z,100.00
2023-01-18T22:49:16.606Z,100.00
2023-01-18T22:51:43.506Z,100.00
2023-01-18T22:54:10.132Z,100.00
2023-01-18T22:56:36.697Z,100.00
2023-01-18T22:59:03.309Z,100.00
2023-01-18T23:01:32.228Z,100.00
2023-01-18T23:04:03.223Z,100.00
2023-01-18T23:06:41.907Z,100.00
2023-01-18T23:09:09.978Z,100.00
2023-01-18T23:11:37.745Z,100.00
2023-01-18T23:14:23.709Z,100.00
2023-01-18T23:17:09.345Z,100.00
2023-01-18T23:19:36.260Z,100.00
2023-01-18T23:22:07.421Z,100.00
2023-01-18T23:24:35.821Z,100.00
2023-01-18T23:27:04.214Z,100.00
2023-01-18T23:29:30.787Z,100.00
2023-01-18T23:31:58.447Z,100.00
2023-01-18T23:34:25.594Z,97.89
2023-01-18T23:36:52.595Z,96.06
2023-01-18T23:39:37.498Z,94.97
2023-01-18T23:42:23.209Z,93.35
2023-01-18T23:45:08.418Z,91.98
2023-01-18T23:47:53.622Z,91.16
2023-01-18T23:50:38.816Z,90.19
2023-01-18T23:53:24.156Z,89.46
2023-01-18T23:55:52.797Z,88.86
2023-01-18T23:58:19.392Z,88.07
